»·PEaware :: N929X KSBA-KCRQ

N929X :: KSBA-KCRQ

FLIGHT INFORMATION

Flight Status: Arrived
Operator: Privately registered:
United States
More flights under this callsign
Pilot: Scott M. (16181)
Aircraft: Unknown
(EPIC)
More flights by this aircraft type
Origin: KSBA Santa Barbara Mun
United States
Destination: KCRQ McClellan-Palomar
United States
More flights between these airports :: More routes between these airports
Route:
File this flight plan on PilotEdge
Remarks:
Altitude:
(Current/Filed)
7,500ft
Speed:
(Current/Filed)
180kts
Departed: 28-Jun-18 04:54 PM
Arrived: 28-Jun-18 05:53 PM
Distance/Time
Traveled:
150nm/0:59
Distance/Time
To Go:
Arrived

Flight Plot

Page will automatically refresh every two minutes.


Map Options




Map Legend


Flown Route
Filed Route
Departure Airport
Arrival Airport
Navaid (VOR, NDB)
Fix

Horizontal Profiles

Position Reports

Time Latitude Longitude Heading Altitude Ground
Speed
28-Jun-18 16:43 34.432565 -119.835102 71 14ft 0kts
28-Jun-18 16:44 34.432565 -119.835102 71 14ft 0kts
28-Jun-18 16:45 34.432565 -119.835102 71 14ft 0kts
28-Jun-18 16:46 34.432565 -119.835102 71 14ft 0kts
28-Jun-18 16:47 34.432565 -119.835102 72 14ft 0kts
28-Jun-18 16:48 34.432565 -119.835102 72 14ft 0kts
28-Jun-18 16:49 34.432565 -119.835102 72 14ft 0kts
28-Jun-18 16:50 34.432565 -119.835102 72 14ft 0kts
28-Jun-18 16:51 34.432566 -119.834925 109 14ft 7kts
28-Jun-18 16:52 34.430721 -119.839706 247 14ft 0kts
28-Jun-18 16:53 34.430466 -119.840168 199 14ft 13kts
28-Jun-18 16:54 34.405496 -119.831532 162 626ft 143kts
28-Jun-18 16:55 34.366642 -119.816104 162 1475ft 150kts
28-Jun-18 16:56 34.335336 -119.777376 100 1483ft 194kts
28-Jun-18 16:57 34.344197 -119.713788 78 2961ft 197kts
28-Jun-18 16:58 34.365865 -119.655048 65 4085ft 187kts
28-Jun-18 16:59 34.387548 -119.599103 64 5179ft 181kts
28-Jun-18 17:00 34.398975 -119.540808 85 6277ft 183kts
28-Jun-18 17:01 34.399108 -119.477363 91 7445ft 199kts
28-Jun-18 17:02 34.395135 -119.403801 93 7509ft 221kts
28-Jun-18 17:03 34.390305 -119.333213 93 7507ft 212kts
28-Jun-18 17:04 34.385292 -119.263628 93 7489ft 208kts
28-Jun-18 17:05 34.380196 -119.194209 92 7490ft 206kts
28-Jun-18 17:06 34.375130 -119.125475 93 7491ft 207kts
28-Jun-18 17:07 34.369900 -119.055342 93 7491ft 211kts
28-Jun-18 17:08 34.364559 -118.984367 93 7491ft 212kts
28-Jun-18 17:09 34.359171 -118.913293 93 7491ft 213kts
28-Jun-18 17:10 34.354131 -118.842076 92 7509ft 213kts
28-Jun-18 17:11 34.349305 -118.770724 92 7510ft 213kts
28-Jun-18 17:12 34.344498 -118.699258 94 7491ft 214kts
28-Jun-18 17:13 34.339616 -118.628289 95 7491ft 211kts
28-Jun-18 17:14 34.334743 -118.558047 95 7492ft 210kts
28-Jun-18 17:15 34.329852 -118.488090 95 7492ft 209kts
28-Jun-18 17:16 34.324943 -118.418296 95 7534ft 207kts
28-Jun-18 17:17 34.320114 -118.350132 95 7538ft 208kts
28-Jun-18 17:18 34.304173 -118.286186 120 7535ft 204kts
28-Jun-18 17:19 34.277580 -118.225487 121 7502ft 206kts
28-Jun-18 17:20 34.250508 -118.165229 121 7499ft 205kts
28-Jun-18 17:21 34.223399 -118.105287 121 7517ft 203kts
28-Jun-18 17:22 34.196323 -118.045622 121 7520ft 204kts
28-Jun-18 17:23 34.169311 -117.986210 121 7527ft 204kts
28-Jun-18 17:24 34.142222 -117.926730 121 7528ft 204kts
28-Jun-18 17:25 34.115129 -117.867348 121 7527ft 204kts
28-Jun-18 17:26 34.088025 -117.808069 121 7546ft 205kts
28-Jun-18 17:27 34.056297 -117.751809 129 7546ft 206kts
28-Jun-18 17:28 34.022315 -117.696811 129 7509ft 208kts
28-Jun-18 17:29 33.988068 -117.641717 130 7509ft 208kts
28-Jun-18 17:30 33.953630 -117.586456 130 7510ft 208kts
28-Jun-18 17:31 33.917781 -117.532456 151 7498ft 203kts
28-Jun-18 17:32 33.869621 -117.499570 155 7501ft 202kts
28-Jun-18 17:33 33.820051 -117.467510 155 7492ft 203kts
28-Jun-18 17:34 33.770448 -117.435867 155 7510ft 202kts
28-Jun-18 17:35 33.720750 -117.404323 154 7510ft 204kts
28-Jun-18 17:36 33.670611 -117.372505 154 7511ft 205kts
28-Jun-18 17:37 33.620760 -117.340928 155 7535ft 204kts
28-Jun-18 17:38 33.570658 -117.309245 155 7535ft 203kts
28-Jun-18 17:39 33.522873 -117.279071 156 7025ft 185kts
28-Jun-18 17:40 33.479305 -117.251608 157 6403ft 172kts
28-Jun-18 17:41 33.437662 -117.228472 187 5748ft 157kts
28-Jun-18 17:42 33.397083 -117.233829 192 5047ft 140kts
28-Jun-18 17:43 33.359869 -117.239820 192 4278ft 131kts
28-Jun-18 17:44 33.324608 -117.245806 192 3532ft 123kts
28-Jun-18 17:45 33.292064 -117.250916 189 3217ft 126kts
28-Jun-18 17:46 33.255382 -117.253662 179 2649ft 133kts
28-Jun-18 17:47 33.220411 -117.248006 175 2190ft 127kts
28-Jun-18 17:48 33.190099 -117.241566 170 1784ft 89kts
28-Jun-18 17:49 33.165663 -117.233842 169 1570ft 94kts
28-Jun-18 17:50 33.141730 -117.229680 199 1392ft 78kts
28-Jun-18 17:51 33.132892 -117.253139 254 814ft 79kts
28-Jun-18 17:52 33.128561 -117.278001 258 309ft 48kts
28-Jun-18 17:53 33.127091 -117.281488 207 312ft 10kts
28-Jun-18 17:54 33.126892 -117.281500 170 312ft 0kts
28-Jun-18 17:55 33.322118 -117.246229 192 3517ft 120kts
28-Jun-18 17:56 33.131515 -117.260653 253 628ft 81kts
28-Jun-18 17:57 33.127813 -117.279575 224 309ft 16kts

Navigation Log

Ident Type
1. KSBA Airport
2. KCRQ Airport